Time;durP1;ratioP1;P1;durP2;ratioP2;P2;SDS_P1;SDS_P2;PMS_P1;PMS_P2;Temp;Humidity;BMP_temperature;BMP_pressure;BME280_temperature;BME280_humidity;BME280_pressure;Samples;Min_cycle;Max_cycle;Signal;HPM_P1;HPM_P2
2022/10/26 00:00:38;;;;;;;;;;;;;;;21.13;53.70;101064.78;5146671;27;19976;-37
2022/10/26 00:03:03;;;;;;;;;;;;;;;21.13;53.80;101064.78;5145889;27;19934;-38
2022/10/26 00:05:31;;;;;;;;;;;;;;;21.13;53.86;101066.75;5149756;27;20303;-38
2022/10/26 00:07:56;;;;;;;;;;;;;;;21.12;53.75;101059.56;5129283;27;20014;-38
2022/10/26 00:10:22;;;;;;;;;;;;;;;21.13;53.73;101052.91;5151043;27;19954;-38
2022/10/26 00:12:49;;;;;;;;;;;;;;;21.13;53.77;101067.56;5145694;27;19931;-37
2022/10/26 00:15:16;;;;;;;;;;;;;;;21.12;53.81;101062.31;5127375;27;19924;-38
2022/10/26 00:17:41;;;;;;;;;;;;;;;21.13;53.95;101058.44;5147102;27;20025;-37
2022/10/26 00:20:07;;;;;;;;;;;;;;;21.11;53.79;101055.94;5145408;27;19958;-38
2022/10/26 00:22:33;;;;;;;;;;;;;;;21.12;53.80;101062.31;5147738;27;20409;-38
2022/10/26 00:24:58;;;;;;;;;;;;;;;21.12;53.75;101054.84;5146878;27;20361;-37
2022/10/26 00:27:24;;;;;;;;;;;;;;;21.12;53.80;101054.84;5144233;27;19968;-38
2022/10/26 00:29:49;;;;;;;;;;;;;;;21.11;53.81;101053.16;5149777;27;19931;-38
2022/10/26 00:32:15;;;;;;;;;;;;;;;21.13;53.73;101047.34;5148067;27;20366;-38
2022/10/26 00:34:40;;;;;;;;;;;;;;;21.12;53.77;101045.72;5147796;27;19931;-38
2022/10/26 00:37:06;;;;;;;;;;;;;;;21.11;53.79;101042.09;5147833;27;20043;-38
2022/10/26 00:39:31;;;;;;;;;;;;;;;21.12;53.64;101051.25;5142162;27;20397;-37
2022/10/26 00:41:57;;;;;;;;;;;;;;;21.12;53.79;101045.72;5141310;27;19927;-38
2022/10/26 00:44:42;;;;;;;;;;;;;;;21.12;53.83;101045.72;5146466;27;19938;-38
2022/10/26 00:47:09;;;;;;;;;;;;;;;21.11;53.72;101047.63;5135535;27;19973;-40
2022/10/26 00:49:34;;;;;;;;;;;;;;;21.11;53.75;101058.69;5134200;27;19984;-37
2022/10/26 00:52:00;;;;;;;;;;;;;;;21.11;53.79;101046.81;5148456;27;19931;-38
2022/10/26 00:54:25;;;;;;;;;;;;;;;21.12;53.85;101045.72;5141136;27;19923;-39
2022/10/26 00:56:51;;;;;;;;;;;;;;;21.11;53.75;101044.84;5145210;27;19931;-38
2022/10/26 00:59:16;;;;;;;;;;;;;;;21.12;53.85;101042.94;5146801;27;19926;-37
2022/10/26 01:01:43;;;;;;;;;;;;;;;21.12;53.83;101042.94;5141070;27;19923;-38
2022/10/26 01:04:09;;;;;;;;;;;;;;;21.11;53.80;101039.31;5125510;27;19923;-37
2022/10/26 01:06:34;;;;;;;;;;;;;;;21.12;53.81;101049.31;5143816;27;19935;-38
2022/10/26 01:09:00;;;;;;;;;;;;;;;21.11;53.68;101046.81;5145426;27;19923;-38
2022/10/26 01:11:25;;;;;;;;;;;;;;;21.11;53.74;101044.84;5143403;27;20427;-38
2022/10/26 01:13:51;;;;;;;;;;;;;;;21.11;53.93;101044.84;5148096;27;19927;-38
2022/10/26 01:16:21;;;;;;;;;;;;;;;21.12;53.84;101034.63;5128383;27;19934;-38
2022/10/26 01:18:51;;;;;;;;;;;;;;;21.11;53.81;101033.78;5146275;27;20018;-37
2022/10/26 01:21:37;;;;;;;;;;;;;;;21.11;53.80;101021.88;5150021;27;19970;-38
2022/10/26 01:24:06;;;;;;;;;;;;;;;21.11;53.67;101021.88;5132137;27;19988;-37
2022/10/26 01:26:37;;;;;;;;;;;;;;;21.11;53.73;101019.13;5128037;27;20039;-38
2022/10/26 01:29:23;;;;;;;;;;;;;;;21.11;53.83;101008.84;5148734;27;20260;-38
2022/10/26 01:31:51;;;;;;;;;;;;;;;21.09;53.68;101011.09;5124096;27;19923;-38
2022/10/26 01:34:28;;;;;;;;;;;;;;;21.10;53.72;101004.44;5147815;27;19991;-38
2022/10/26 01:36:54;;;;;;;;;;;;;;;21.10;53.83;101000.84;5147102;27;19923;-37
2022/10/26 01:39:21;;;;;;;;;;;;;;;21.10;53.89;101004.44;5128927;27;19923;-38
2022/10/26 01:41:47;;;;;;;;;;;;;;;21.10;53.75;101006.38;5138918;27;20000;-37
2022/10/26 01:44:15;;;;;;;;;;;;;;;21.10;53.76;100995.31;5144783;27;20392;-37
2022/10/26 01:46:42;;;;;;;;;;;;;;;21.09;53.79;101008.34;5128304;27;19954;-38
2022/10/26 01:49:09;;;;;;;;;;;;;;;21.09;53.74;100997.25;5138716;27;20030;-37
2022/10/26 01:51:34;;;;;;;;;;;;;;;21.10;53.67;100995.31;5121263;27;19970;-38
2022/10/26 01:54:00;;;;;;;;;;;;;;;21.10;53.80;100996.13;5122261;27;19923;-37
2022/10/26 01:56:26;;;;;;;;;;;;;;;21.09;53.76;100993.66;5142481;27;19984;-38
2022/10/26 01:58:55;;;;;;;;;;;;;;;21.09;53.82;100994.50;5139807;27;20437;-38
2022/10/26 02:01:41;;;;;;;;;;;;;;;21.09;53.90;100991.72;5148084;27;20029;-38
2022/10/26 02:04:27;;;;;;;;;;;;;;;21.09;53.76;100991.72;5125275;27;19927;-38
2022/10/26 02:07:00;;;;;;;;;;;;;;;21.10;53.73;100984.25;5134894;27;19936;-38
2022/10/26 02:09:45;;;;;;;;;;;;;;;21.10;53.74;100984.25;5140382;27;20294;-37
2022/10/26 02:12:14;;;;;;;;;;;;;;;21.09;53.68;100977.88;5123979;27;19959;-37
2022/10/26 02:14:58;;;;;;;;;;;;;;;21.09;53.76;100980.66;5140746;27;19966;-38
2022/10/26 02:17:33;;;;;;;;;;;;;;;21.10;53.49;100975.94;5140031;27;20006;-38
2022/10/26 02:20:01;;;;;;;;;;;;;;;21.09;53.94;100965.97;5145414;27;20222;-38
2022/10/26 02:22:36;;;;;;;;;;;;;;;21.09;53.82;100968.75;5141052;27;19968;-38
2022/10/26 02:25:04;;;;;;;;;;;;;;;21.09;53.83;100965.97;5142715;27;20021;-38
2022/10/26 02:27:30;;;;;;;;;;;;;;;21.09;53.75;100963.22;5150226;27;20019;-37
2022/10/26 02:29:56;;;;;;;;;;;;;;;21.09;53.77;100958.50;5145089;27;19924;-38
2022/10/26 02:32:22;;;;;;;;;;;;;;;21.09;53.75;100960.44;5139208;27;19942;-37
2022/10/26 02:34:48;;;;;;;;;;;;;;;21.09;53.86;100954.91;5125937;27;21296;-37
2022/10/26 02:37:14;;;;;;;;;;;;;;;21.08;53.78;100954.09;5146822;27;19930;-38
2022/10/26 02:39:39;;;;;;;;;;;;;;;21.08;53.68;100950.50;5144844;27;20378;-37
2022/10/26 02:42:05;;;;;;;;;;;;;;;21.09;53.69;100952.13;5144285;27;19931;-38
2022/10/26 02:44:33;;;;;;;;;;;;;;;21.09;53.70;100952.13;5139221;27;20365;-37
2022/10/26 02:46:59;;;;;;;;;;;;;;;21.09;53.93;100952.13;5141364;27;19962;-38
2022/10/26 02:49:24;;;;;;;;;;;;;;;21.09;53.74;100957.69;5150971;27;19922;-38
2022/10/26 02:52:00;;;;;;;;;;;;;;;21.09;53.81;100955.72;5141735;27;19968;-37
2022/10/26 02:54:31;;;;;;;;;;;;;;;21.08;54.05;100953.25;5140216;27;19963;-37
2022/10/26 02:56:58;;;;;;;;;;;;;;;21.08;53.71;100944.97;5142317;27;19998;-38
2022/10/26 02:59:25;;;;;;;;;;;;;;;21.08;53.77;100947.72;5145206;27;19965;-38
2022/10/26 03:01:51;;;;;;;;;;;;;;;21.08;53.81;100948.53;5121975;27;20021;-38
2022/10/26 03:04:17;;;;;;;;;;;;;;;21.08;53.79;100945.78;5138271;27;20283;-38
2022/10/26 03:06:50;;;;;;;;;;;;;;;21.07;53.75;100944.13;5141898;27;20267;-38
2022/10/26 03:09:15;;;;;;;;;;;;;;;21.08;53.67;100948.53;5145100;27;19967;-38
2022/10/26 03:11:41;;;;;;;;;;;;;;;21.08;53.62;100943.00;5140858;27;20271;-38
2022/10/26 03:14:07;;;;;;;;;;;;;;;21.08;53.63;100942.19;5142081;27;19927;-37
2022/10/26 03:16:32;;;;;;;;;;;;;;;21.09;53.85;100938.28;5142629;27;19972;-37
2022/10/26 03:18:58;;;;;;;;;;;;;;;21.08;53.70;100947.72;5138422;27;20295;-38
2022/10/26 03:21:23;;;;;;;;;;;;;;;21.08;53.79;100940.25;5145979;27;19930;-38
2022/10/26 03:23:49;;;;;;;;;;;;;;;21.09;53.79;100941.06;5142438;27;20357;-38
2022/10/26 03:26:15;;;;;;;;;;;;;;;21.08;53.77;100934.69;5144704;27;19969;-38
2022/10/26 03:28:40;;;;;;;;;;;;;;;21.08;53.82;100944.97;5146952;27;19931;-38
2022/10/26 03:31:06;;;;;;;;;;;;;;;21.08;53.83;100939.41;5141187;27;19931;-37
2022/10/26 03:33:31;;;;;;;;;;;;;;;21.08;53.78;100933.88;5136912;27;19931;-38
2022/10/26 03:35:57;;;;;;;;;;;;;;;21.07;53.95;100938.59;5139487;27;20290;-37
2022/10/26 03:38:22;;;;;;;;;;;;;;;21.07;53.75;100938.59;5142813;27;19999;-37
2022/10/26 03:40:48;;;;;;;;;;;;;;;21.08;53.79;100942.19;5139987;27;19923;-38
2022/10/26 03:43:14;;;;;;;;;;;;;;;21.08;53.83;100936.66;5142820;27;20116;-38
2022/10/26 03:45:39;;;;;;;;;;;;;;;21.07;53.98;100935.81;5145632;27;20431;-37
2022/10/26 03:48:05;;;;;;;;;;;;;;;21.07;53.84;100938.59;5156315;27;19927;-37
2022/10/26 03:50:30;;;;;;;;;;;;;;;21.07;53.72;100941.38;5149327;27;20279;-38
2022/10/26 03:52:56;;;;;;;;;;;;;;;21.07;53.79;100937.75;5148452;27;19924;-38
2022/10/26 03:55:21;;;;;;;;;;;;;;;21.07;53.89;100938.59;5139121;27;19942;-38
2022/10/26 03:57:47;;;;;;;;;;;;;;;21.08;53.77;100933.88;5139084;27;20539;-38
2022/10/26 04:00:14;;;;;;;;;;;;;;;21.06;53.89;100931.38;5147793;27;19923;-38
2022/10/26 04:02:40;;;;;;;;;;;;;;;21.07;53.75;100933.06;5145035;27;20458;-38
2022/10/26 04:05:06;;;;;;;;;;;;;;;21.07;53.86;100926.66;5127192;27;19931;-38
2022/10/26 04:07:31;;;;;;;;;;;;;;;21.07;53.75;100932.19;5143884;27;20327;-38
2022/10/26 04:09:57;;;;;;;;;;;;;;;21.07;53.85;100938.59;5142212;27;19988;-38
2022/10/26 04:12:22;;;;;;;;;;;;;;;21.07;53.81;100934.97;5141626;27;19932;-38
2022/10/26 04:14:48;;;;;;;;;;;;;;;21.06;53.85;100925.84;5140034;27;19931;-38
2022/10/26 04:17:14;;;;;;;;;;;;;;;21.06;53.69;100925.84;5147823;27;19923;-38
2022/10/26 04:19:39;;;;;;;;;;;;;;;21.06;53.69;100928.63;5143405;27;20358;-37
2022/10/26 04:22:05;;;;;;;;;;;;;;;21.07;53.78;100927.53;5140908;27;19946;-37
2022/10/26 04:24:30;;;;;;;;;;;;;;;21.06;53.76;100928.63;5144896;27;19942;-38
2022/10/26 04:26:56;;;;;;;;;;;;;;;21.06;53.73;100931.38;5142933;27;19931;-38
2022/10/26 04:29:22;;;;;;;;;;;;;;;21.06;53.72;100936.91;5146291;27;19930;-38
2022/10/26 04:31:47;;;;;;;;;;;;;;;21.06;53.87;100934.16;5140660;27;19934;-38
2022/10/26 04:34:13;;;;;;;;;;;;;;;21.07;53.69;100940.50;5140349;27;19923;-38
2022/10/26 04:36:38;;;;;;;;;;;;;;;21.06;53.75;100936.91;5143864;27;19946;-38
2022/10/26 04:39:04;;;;;;;;;;;;;;;21.06;53.71;100936.91;5142140;27;19927;-38
2022/10/26 04:41:29;;;;;;;;;;;;;;;21.07;53.77;100940.50;5126690;27;19927;-38
2022/10/26 04:43:55;;;;;;;;;;;;;;;21.07;53.80;100946.03;5147576;27;20278;-38
2022/10/26 04:46:20;;;;;;;;;;;;;;;21.06;53.69;100945.22;5151058;27;19927;-37
2022/10/26 04:48:46;;;;;;;;;;;;;;;21.05;53.85;100938.88;5142643;27;19923;-38
2022/10/26 04:51:12;;;;;;;;;;;;;;;21.05;53.75;100936.09;5156756;27;19927;-38
2022/10/26 04:53:37;;;;;;;;;;;;;;;21.05;53.72;100935.28;5145441;27;19935;-37
2022/10/26 04:56:03;;;;;;;;;;;;;;;21.05;53.82;100938.03;5144841;27;19927;-37
2022/10/26 04:58:29;;;;;;;;;;;;;;;21.06;53.68;100942.47;5141564;27;19923;-38
2022/10/26 05:00:55;;;;;;;;;;;;;;;21.07;53.62;100943.28;5147673;27;20331;-38
2022/10/26 05:03:20;;;;;;;;;;;;;;;21.06;53.75;100942.47;5123189;27;19946;-38
2022/10/26 05:05:47;;;;;;;;;;;;;;;21.05;53.86;100933.31;5140975;27;19930;-38
2022/10/26 05:08:13;;;;;;;;;;;;;;;21.07;53.84;100934.97;5145281;27;20013;-37
2022/10/26 05:10:38;;;;;;;;;;;;;;;21.05;53.71;100947.19;5138792;27;19950;-37
2022/10/26 05:13:04;;;;;;;;;;;;;;;21.05;53.78;100940.81;5139977;27;19927;-37
2022/10/26 05:15:29;;;;;;;;;;;;;;;21.05;53.83;100944.41;5140018;27;20298;-37
2022/10/26 05:17:58;;;;;;;;;;;;;;;21.05;53.83;100941.63;5144207;27;19927;-37
2022/10/26 05:20:28;;;;;;;;;;;;;;;21.05;53.89;100943.59;5149827;27;20029;-37
2022/10/26 05:22:54;;;;;;;;;;;;;;;21.05;53.80;100946.34;5125833;27;19981;-37
2022/10/26 05:25:19;;;;;;;;;;;;;;;21.05;53.74;100943.59;5127917;27;19926;-37
2022/10/26 05:27:45;;;;;;;;;;;;;;;21.05;53.81;100938.03;5142124;27;19927;-38
2022/10/26 05:30:11;;;;;;;;;;;;;;;21.04;53.77;100940.00;5142960;27;19923;-37
2022/10/26 05:32:36;;;;;;;;;;;;;;;21.04;53.80;100936.41;5140966;27;19923;-37
2022/10/26 05:35:02;;;;;;;;;;;;;;;21.04;53.84;100939.16;5146218;27;19923;-38
2022/10/26 05:37:28;;;;;;;;;;;;;;;21.05;53.90;100936.09;5141396;27;20457;-37
2022/10/26 05:39:53;;;;;;;;;;;;;;;21.05;53.70;100929.75;5148449;27;20288;-37
2022/10/26 05:42:19;;;;;;;;;;;;;;;21.04;53.88;100928.91;5143282;27;20507;-37
2022/10/26 05:44:45;;;;;;;;;;;;;;;21.05;53.74;100932.50;5142199;27;19931;-37
2022/10/26 05:47:10;;;;;;;;;;;;;;;21.04;53.72;100926.16;5144725;27;19989;-37
2022/10/26 05:49:36;;;;;;;;;;;;;;;21.05;53.74;100935.28;5145586;27;19927;-38
2022/10/26 05:52:01;;;;;;;;;;;;;;;21.04;53.74;100942.75;5143946;27;20405;-38
2022/10/26 05:54:27;;;;;;;;;;;;;;;21.04;53.66;100942.75;5133328;27;19938;-38
2022/10/26 05:56:52;;;;;;;;;;;;;;;21.04;53.73;100947.47;5131709;27;20183;-37
2022/10/26 05:59:18;;;;;;;;;;;;;;;21.05;53.71;100949.94;5134803;27;19927;-37
2022/10/26 06:01:55;;;;;;;;;;;;;;;21.05;53.72;100946.34;5130747;27;19923;-37
2022/10/26 06:04:37;;;;;;;;;;;;;;;21.04;53.78;100945.53;5124272;27;20033;-37
2022/10/26 06:07:04;;;;;;;;;;;;;;;21.04;53.78;100947.47;5110503;27;20038;-37
2022/10/26 06:09:29;;;;;;;;;;;;;;;21.04;53.73;100947.47;5111898;27;20415;-37
2022/10/26 06:11:55;;;;;;;;;;;;;;;21.05;53.82;100951.88;5140087;27;19931;-38
2022/10/26 06:14:21;;;;;;;;;;;;;;;21.04;53.79;100951.06;5126257;27;19952;-39
2022/10/26 06:17:00;;;;;;;;;;;;;;;21.04;53.77;100947.47;5132346;27;20016;-38
2022/10/26 06:19:37;;;;;;;;;;;;;;;21.03;53.69;100957.72;5139153;27;19946;-39
2022/10/26 06:22:22;;;;;;;;;;;;;;;21.05;53.77;100954.66;5138523;27;19927;-38
2022/10/26 06:25:08;;;;;;;;;;;;;;;21.03;53.64;100960.50;5110821;27;20034;-37
2022/10/26 06:27:43;;;;;;;;;;;;;;;21.04;53.81;100950.25;5107639;27;20021;-37
2022/10/26 06:30:10;;;;;;;;;;;;;;;21.03;53.74;100949.44;5133113;27;20046;-37
2022/10/26 06:32:36;;;;;;;;;;;;;;;21.03;53.74;100943.06;5108001;27;20026;-38
2022/10/26 06:35:07;;;;;;;;;;;;;;;21.03;53.70;100945.84;5130789;27;20370;-37
2022/10/26 06:37:33;;;;;;;;;;;;;;;21.03;53.86;100954.16;5140814;27;20046;-37
2022/10/26 06:39:58;;;;;;;;;;;;;;;21.03;53.75;100962.44;5132652;27;19938;-38
2022/10/26 06:42:24;;;;;;;;;;;;;;;21.03;53.71;100963.28;5135166;27;19962;-38
2022/10/26 06:44:49;;;;;;;;;;;;;;;21.03;53.71;100960.50;5130798;27;19978;-38
2022/10/26 06:47:18;;;;;;;;;;;;;;;21.03;53.76;100951.38;5135440;27;19926;-37
2022/10/26 06:49:54;;;;;;;;;;;;;;;21.04;53.77;100969.63;5137688;27;19931;-38
2022/10/26 06:56:10;;;;;;;;;;;;;;;21.02;53.72;100958.81;5109854;27;19977;-37
2022/10/26 06:58:35;;;;;;;;;;;;;;;21.02;53.66;100950.53;5132434;27;20017;-39
2022/10/26 07:01:01;;;;;;;;;;;;;;;21.02;53.67;100956.06;5122921;27;21261;-38
2022/10/26 07:03:26;;;;;;;;;;;;;;;21.03;53.65;100960.50;5130401;27;19923;-38
2022/10/26 07:05:52;;;;;;;;;;;;;;;21.03;53.60;100963.28;5120656;27;19931;-39
2022/10/26 07:08:17;;;;;;;;;;;;;;;21.04;53.66;100964.09;5116834;27;19923;-38
2022/10/26 07:10:43;;;;;;;;;;;;;;;21.03;53.62;100973.53;5114196;27;20547;-37
2022/10/26 07:13:09;;;;;;;;;;;;;;;21.02;53.80;100989.28;5121471;27;19931;-37
2022/10/26 07:15:35;;;;;;;;;;;;;;;21.04;53.65;100986.25;5130059;27;20487;-38
2022/10/26 07:18:02;;;;;;;;;;;;;;;21.03;53.70;100987.38;5129557;27;19927;-38
2022/10/26 07:20:27;;;;;;;;;;;;;;;21.03;53.70;100993.72;5131254;27;20013;-37
2022/10/26 07:22:54;;;;;;;;;;;;;;;21.02;53.75;101008.66;5126224;27;19931;-38
2022/10/26 07:25:20;;;;;;;;;;;;;;;21.03;53.52;101003.97;5108685;27;20006;-38
2022/10/26 07:27:46;;;;;;;;;;;;;;;20.84;53.05;101006.63;5128190;27;19931;-38
2022/10/26 07:30:11;;;;;;;;;;;;;;;20.97;53.28;101007.91;5128556;27;19923;-40
2022/10/26 07:32:37;;;;;;;;;;;;;;;21.02;53.14;101013.38;5129670;27;20324;-37
2022/10/26 07:35:03;;;;;;;;;;;;;;;21.02;53.39;101007.84;5132956;27;19930;-38
2022/10/26 07:37:28;;;;;;;;;;;;;;;21.03;53.39;101010.34;5130679;27;20025;-38
2022/10/26 07:39:54;;;;;;;;;;;;;;;21.03;53.54;101015.88;5095750;27;19949;-38
2022/10/26 07:42:19;;;;;;;;;;;;;;;21.04;53.46;101006.44;5120744;27;19943;-37
2022/10/26 07:44:45;;;;;;;;;;;;;;;21.04;53.36;100997.31;5131121;27;19939;-38
2022/10/26 07:47:10;;;;;;;;;;;;;;;21.04;53.45;100991.78;5111510;27;19927;-38
2022/10/26 07:49:36;;;;;;;;;;;;;;;21.03;53.45;100996.50;5135209;27;19931;-39
2022/10/26 07:52:02;;;;;;;;;;;;;;;21.05;53.50;100990.66;5129448;27;19935;-38
2022/10/26 07:54:27;;;;;;;;;;;;;;;21.07;53.42;100993.13;5112146;27;19978;-38
2022/10/26 07:56:53;;;;;;;;;;;;;;;21.08;53.17;100986.50;5130019;27;20246;-38
2022/10/26 07:59:18;;;;;;;;;;;;;;;21.07;53.27;100988.44;5131915;27;19935;-38
2022/10/26 08:01:44;;;;;;;;;;;;;;;21.08;53.43;100989.25;5122085;27;19927;-38
2022/10/26 08:04:10;;;;;;;;;;;;;;;21.09;53.39;100991.72;5124695;27;19932;-38
2022/10/26 08:06:35;;;;;;;;;;;;;;;21.08;53.37;100994.78;5120638;27;19938;-38
2022/10/26 08:09:01;;;;;;;;;;;;;;;21.09;53.59;100994.50;5127344;27;19947;-38
2022/10/26 08:11:27;;;;;;;;;;;;;;;21.09;53.40;101000.03;5127445;27;19927;-38
2022/10/26 08:13:53;;;;;;;;;;;;;;;21.11;53.50;101010.81;5122906;27;20026;-38
2022/10/26 08:16:19;;;;;;;;;;;;;;;21.10;53.48;101017.47;5117174;27;20196;-38
2022/10/26 08:18:48;;;;;;;;;;;;;;;21.10;53.47;101029.38;5125646;27;19931;-38
2022/10/26 08:21:14;;;;;;;;;;;;;;;21.10;53.43;101032.13;5131794;27;21315;-38
2022/10/26 08:23:55;;;;;;;;;;;;;;;21.12;53.49;101034.63;5110814;27;19931;-38
2022/10/26 08:26:21;;;;;;;;;;;;;;;21.09;53.87;101038.81;5127645;27;19931;-39
2022/10/26 08:28:47;;;;;;;;;;;;;;;21.11;53.71;101038.50;5131075;27;19935;-38
2022/10/26 08:31:12;;;;;;;;;;;;;;;21.14;53.72;101026.84;5112434;27;20015;-38
2022/10/26 08:33:38;;;;;;;;;;;;;;;21.16;53.58;101042.06;5123374;27;19968;-38
2022/10/26 08:36:09;;;;;;;;;;;;;;;21.16;53.61;101044.84;5121937;27;19931;-37
2022/10/26 08:38:35;;;;;;;;;;;;;;;21.17;53.57;101042.88;5117624;27;19976;-37
2022/10/26 08:41:05;;;;;;;;;;;;;;;21.15;53.55;101034.03;5128764;27;19942;-37
2022/10/26 08:43:33;;;;;;;;;;;;;;;21.16;53.71;101032.94;5115851;27;20442;-37
2022/10/26 08:46:19;;;;;;;;;;;;;;;21.16;53.84;101031.00;5125908;27;20115;-39
2022/10/26 08:48:50;;;;;;;;;;;;;;;21.12;53.88;101034.63;5113496;27;20337;-38
2022/10/26 08:51:16;;;;;;;;;;;;;;;21.15;53.77;101037.63;5133505;27;20000;-38
2022/10/26 08:53:56;;;;;;;;;;;;;;;21.16;53.77;101049.56;5129986;27;20115;-38
2022/10/26 08:56:23;;;;;;;;;;;;;;;21.18;53.66;101064.75;5110442;27;20018;-37
2022/10/26 08:58:58;;;;;;;;;;;;;;;21.18;53.79;101075.81;5110417;27;19931;-40
2022/10/26 09:01:23;;;;;;;;;;;;;;;21.18;53.66;101066.69;5128497;27;19927;-38
2022/10/26 09:03:49;;;;;;;;;;;;;;;21.18;53.60;101059.19;5133821;27;20038;-37
2022/10/26 09:06:32;;;;;;;;;;;;;;;21.18;53.44;101055.63;5133766;27;19969;-38
2022/10/26 09:09:04;;;;;;;;;;;;;;;21.18;53.68;101075.81;5133768;27;20196;-37
2022/10/26 09:11:51;;;;;;;;;;;;;;;21.20;53.59;101089.38;5132947;27;20022;-38
2022/10/26 09:14:22;;;;;;;;;;;;;;;21.20;53.76;101078.28;5117104;27;19962;-39
2022/10/26 09:17:07;;;;;;;;;;;;;;;21.19;53.70;101085.78;5133177;27;19971;-38
2022/10/26 09:19:34;;;;;;;;;;;;;;;21.21;53.38;101093.81;5119835;27;20022;-38
2022/10/26 09:22:03;;;;;;;;;;;;;;;21.21;53.60;101093.81;5133081;27;19976;-38
2022/10/26 09:24:31;;;;;;;;;;;;;;;21.21;53.54;101096.59;5115572;27;20006;-37
2022/10/26 09:26:59;;;;;;;;;;;;;;;21.21;53.57;101096.59;5115664;27;20434;-37
2022/10/26 09:29:27;;;;;;;;;;;;;;;21.21;53.53;101105.72;5141075;27;19959;-38
2022/10/26 09:31:52;;;;;;;;;;;;;;;21.21;53.45;101097.41;5130350;27;20014;-38
2022/10/26 09:34:21;;;;;;;;;;;;;;;21.18;52.65;101113.78;5136747;27;19942;-38
2022/10/26 09:36:49;;;;;;;;;;;;;;;21.16;53.00;101111.31;5131773;27;19962;-37
2022/10/26 09:39:20;;;;;;;;;;;;;;;21.21;53.22;101111.25;5123408;27;20368;-38
2022/10/26 09:41:48;;;;;;;;;;;;;;;21.24;53.38;101112.59;5128358;27;19923;-38
2022/10/26 09:44:18;;;;;;;;;;;;;;;21.25;53.35;101111.50;5127999;27;20017;-38
2022/10/26 09:46:46;;;;;;;;;;;;;;;21.24;53.33;101113.44;5132007;27;19927;-38
2022/10/26 09:49:16;;;;;;;;;;;;;;;21.24;53.40;101120.91;5134804;27;20382;-38
2022/10/26 09:51:42;;;;;;;;;;;;;;;21.24;53.77;101123.69;5109855;27;19923;-38
2022/10/26 09:54:15;;;;;;;;;;;;;;;21.25;53.62;101125.34;5117595;27;20283;-37
2022/10/26 09:56:42;;;;;;;;;;;;;;;21.26;53.57;101132.53;5120673;27;20026;-38
2022/10/26 09:59:08;;;;;;;;;;;;;;;21.26;53.59;101135.31;5133265;27;19975;-38
2022/10/26 10:01:34;;;;;;;;;;;;;;;21.26;53.66;101132.53;5133932;27;19942;-38
2022/10/26 10:04:15;;;;;;;;;;;;;;;21.19;53.86;101138.41;5133124;27;19923;-37
2022/10/26 10:06:42;;;;;;;;;;;;;;;21.27;53.68;101140.56;5125829;27;20009;-38
2022/10/26 10:09:11;;;;;;;;;;;;;;;21.29;53.52;101143.88;5131270;27;20076;-38
2022/10/26 10:11:38;;;;;;;;;;;;;;;21.27;53.40;101146.09;5131651;27;19934;-37
2022/10/26 10:14:07;;;;;;;;;;;;;;;21.28;53.59;101149.69;5113162;27;19966;-39
2022/10/26 10:16:33;;;;;;;;;;;;;;;21.28;53.41;101152.44;5133540;27;20026;-39
2022/10/26 10:18:58;;;;;;;;;;;;;;;21.28;53.73;101160.75;5132631;27;19934;-38
2022/10/26 10:21:42;;;;;;;;;;;;;;;21.28;53.71;101161.59;5135039;27;20371;-38
2022/10/26 10:24:26;;;;;;;;;;;;;;;21.29;53.54;101157.72;5130718;27;20007;-38
2022/10/26 10:26:55;;;;;;;;;;;;;;;21.30;53.66;101164.09;5124360;27;19986;-38
2022/10/26 10:29:23;;;;;;;;;;;;;;;21.29;53.62;101171.56;5131642;27;20018;-38
2022/10/26 10:31:54;;;;;;;;;;;;;;;21.29;53.64;101171.56;5136185;27;20850;-38
2022/10/26 10:34:19;;;;;;;;;;;;;;;21.30;53.56;101177.94;5133073;27;19983;-38
2022/10/26 10:36:45;;;;;;;;;;;;;;;21.28;53.63;101178.22;5133491;27;19927;-38
2022/10/26 10:39:23;;;;;;;;;;;;;;;21.30;54.34;101184.31;5121372;27;20511;-38
2022/10/26 10:41:48;;;;;;;;;;;;;;;21.33;54.03;101185.72;5112219;27;20500;-38
2022/10/26 10:44:20;;;;;;;;;;;;;;;21.30;54.05;101187.06;5125777;27;19931;-38
2022/10/26 10:46:45;;;;;;;;;;;;;;;21.35;54.14;101193.72;5101605;27;19962;-38
2022/10/26 10:49:26;;;;;;;;;;;;;;;21.36;54.08;101195.38;5120682;27;19980;-38
2022/10/26 10:51:52;;;;;;;;;;;;;;;21.34;54.09;101192.91;5125683;27;20034;-38
2022/10/26 10:54:33;;;;;;;;;;;;;;;21.34;54.06;101198.44;5127891;27;19979;-40
2022/10/26 10:57:18;;;;;;;;;;;;;;;21.35;54.13;101197.31;5132158;27;20409;-37
2022/10/26 10:59:47;;;;;;;;;;;;;;;21.36;54.09;101198.13;5121892;27;20023;-38
2022/10/26 11:02:21;;;;;;;;;;;;;;;21.36;54.08;101192.59;5131826;27;20349;-39
2022/10/26 11:04:51;;;;;;;;;;;;;;;21.38;54.20;101204.22;5133350;27;20421;-36
2022/10/26 11:07:17;;;;;;;;;;;;;;;21.37;53.99;101200.59;5122672;27;20029;-38
2022/10/26 11:09:43;;;;;;;;;;;;;;;21.36;54.22;101210.03;5112879;27;19967;-38
2022/10/26 11:12:14;;;;;;;;;;;;;;;21.36;54.07;101212.81;5110338;27;19944;-39
2022/10/26 11:14:40;;;;;;;;;;;;;;;21.38;53.95;101212.53;5129592;27;20018;-38
2022/10/26 11:17:08;;;;;;;;;;;;;;;21.39;54.87;101203.94;5126270;27;19947;-39
2022/10/26 11:19:39;;;;;;;;;;;;;;;21.40;54.05;101215.84;5138316;27;20051;-38
2022/10/26 11:22:04;;;;;;;;;;;;;;;21.40;54.42;101213.06;5111414;27;19962;-38
2022/10/26 11:27:28;;;;;;;;;;;;;;;21.40;54.42;101224.97;5146682;27;19929;-38
2022/10/26 11:29:56;;;;;;;;;;;;;;;21.40;54.41;101221.38;5114919;27;20059;-39
2022/10/26 11:32:22;;;;;;;;;;;;;;;21.41;54.38;101220.25;5133152;27;20006;-38
2022/10/26 11:35:08;;;;;;;;;;;;;;;21.43;54.63;101218.03;5108892;27;19975;-38
2022/10/26 11:37:36;;;;;;;;;;;;;;;21.41;54.32;101228.56;5114882;27;19928;-37
2022/10/26 11:40:04;;;;;;;;;;;;;;;21.41;54.69;101232.16;5107277;27;20405;-39
2022/10/26 11:42:33;;;;;;;;;;;;;;;21.41;54.66;101221.09;5135807;27;20014;-38
2022/10/26 11:45:07;;;;;;;;;;;;;;;21.40;54.22;101219.44;5106029;27;20013;-37
2022/10/26 11:47:41;;;;;;;;;;;;;;;21.41;54.57;101221.09;5133996;27;19927;-37
2022/10/26 11:50:16;;;;;;;;;;;;;;;21.41;54.56;101220.25;5119395;27;19992;-38
2022/10/26 11:52:44;;;;;;;;;;;;;;;21.40;54.37;101224.97;5111883;27;19950;-39
2022/10/26 11:55:10;;;;;;;;;;;;;;;21.41;54.15;101229.41;5132140;27;19975;-37
2022/10/26 11:57:35;;;;;;;;;;;;;;;21.41;54.30;101229.41;5115525;27;19930;-37
2022/10/26 12:00:03;;;;;;;;;;;;;;;21.37;54.93;101231.09;5136667;27;20021;-39
2022/10/26 12:02:28;;;;;;;;;;;;;;;21.42;54.25;101233.84;5115751;27;20379;-38
2022/10/26 12:04:59;;;;;;;;;;;;;;;21.44;54.33;101231.59;5129059;27;19931;-38
2022/10/26 12:07:25;;;;;;;;;;;;;;;21.43;54.14;101235.50;5118650;27;19981;-38
2022/10/26 12:09:51;;;;;;;;;;;;;;;21.45;54.53;101238.78;5136452;27;20013;-38
2022/10/26 12:12:26;;;;;;;;;;;;;;;21.43;54.23;101238.25;5134665;27;19923;-37
2022/10/26 12:14:58;;;;;;;;;;;;;;;21.44;54.75;101244.63;5108659;27;20340;-38
2022/10/26 12:17:27;;;;;;;;;;;;;;;21.35;55.20;101249.94;5112221;27;20030;-38
2022/10/26 12:20:12;;;;;;;;;;;;;;;21.42;54.89;101252.41;5116142;27;19962;-38
2022/10/26 12:22:39;;;;;;;;;;;;;;;21.44;54.58;101261.25;5116648;27;20018;-38
2022/10/26 12:25:07;;;;;;;;;;;;;;;21.44;54.61;101252.94;5117504;27;20078;-38
2022/10/26 12:30:22;;;;;;;;;;;;;;;21.45;54.45;101263.72;5114654;27;19945;-38
2022/10/26 12:32:49;;;;;;;;;;;;;;;21.45;54.48;101263.72;5077566;28;20239;-38
2022/10/26 12:35:35;;;;;;;;;;;;;;;21.46;54.67;101268.19;5075891;28;19927;-38
2022/10/26 12:38:20;;;;;;;;;;;;;;;21.47;54.32;101271.75;5080650;28;20011;-38
2022/10/26 12:40:46;;;;;;;;;;;;;;;21.47;54.26;101272.59;5077624;28;19932;-38
2022/10/26 12:46:07;;;;;;;;;;;;;;;21.47;54.19;101282.84;5150815;27;19946;-40
2022/10/26 12:48:49;;;;;;;;;;;;;;;21.47;54.34;101286.44;5136302;27;20124;-41
2022/10/26 12:53:59;;;;;;;;;;;;;;;21.47;54.18;101278.13;5153906;27;19925;-35
2022/10/26 12:56:34;;;;;;;;;;;;;;;21.48;54.16;101278.97;5153856;27;20080;-35